MMMX

Licenciado Benito Juarez International Airport

Airport
ICAO code
MMMX
IATA Code
MEX
Summary
ICAO Region
CARSAM
ICAO Territory
Location

Venustiano Carranza, Distrito Federal

Serving
Mexico City
Elevation
7316 ft
Coordinates
19° 26' 11" N , 99° 4' 20" W
KCC
Airport RE
Hot and High Operations
Metar
Observation
MMMX 270327Z 06005KT 10SM SKC 13/04 A3034 NOSIG RMK HZY ISOL AC
Station
Mexico City / Licenci
Date/Time
2023-01-27 03:27:00
Wind direction
60°
Wind speed
05 kts
Lowest cloud amount
n/a
Temperature
13°C
Dew point
4°C
Humidity
54%
Weather condition
n/a

International airport serving Mexico City, Mexico.

Climatology

Tropical Savanna climate (Köppen climate classification Aw)

Runways

Designator Length Width Surface Rops
05R/23L 3900 45 ASP Yes/Yes
05L/23R 3952 45 ASP Yes/Yes

Airport map

Aerial View

SKYbrary Partners:

Safety knowledge contributed by: